sensor_id;sensor_type;location;lat;lon;timestamp;temperature;humidity
9219;DHT22;4644;48.858;9.184;2024-01-07T00:00:13;4.90;99.90
9219;DHT22;4644;48.858;9.184;2024-01-07T00:02:40;4.90;99.90
9219;DHT22;4644;48.858;9.184;2024-01-07T00:05:07;4.90;99.90
9219;DHT22;4644;48.858;9.184;2024-01-07T00:07:35;4.80;99.90
9219;DHT22;4644;48.858;9.184;2024-01-07T00:10:02;4.80;99.90
9219;DHT22;4644;48.858;9.184;2024-01-07T00:12:30;4.80;99.90
9219;DHT22;4644;48.858;9.184;2024-01-07T00:14:57;4.90;99.90
9219;DHT22;4644;48.858;9.184;2024-01-07T00:17:24;4.90;99.90
9219;DHT22;4644;48.858;9.184;2024-01-07T00:19:51;4.90;99.90
9219;DHT22;4644;48.858;9.184;2024-01-07T00:22:17;4.90;99.90
9219;DHT22;4644;48.858;9.184;2024-01-07T00:24:46;4.90;99.90
9219;DHT22;4644;48.858;9.184;2024-01-07T00:27:12;4.90;99.90
9219;DHT22;4644;48.858;9.184;2024-01-07T00:29:42;4.90;99.90
9219;DHT22;4644;48.858;9.184;2024-01-07T00:32:09;4.90;99.90
9219;DHT22;4644;48.858;9.184;2024-01-07T00:34:36;4.90;99.90
9219;DHT22;4644;48.858;9.184;2024-01-07T00:37:03;4.80;99.90
9219;DHT22;4644;48.858;9.184;2024-01-07T00:39:29;4.80;99.90
9219;DHT22;4644;48.858;9.184;2024-01-07T00:41:58;4.80;99.90
9219;DHT22;4644;48.858;9.184;2024-01-07T00:44:25;4.90;99.90
9219;DHT22;4644;48.858;9.184;2024-01-07T00:46:51;4.80;99.90
9219;DHT22;4644;48.858;9.184;2024-01-07T00:49:18;4.80;99.90
9219;DHT22;4644;48.858;9.184;2024-01-07T00:51:45;4.80;99.90
9219;DHT22;4644;48.858;9.184;2024-01-07T00:54:12;4.80;99.90
9219;DHT22;4644;48.858;9.184;2024-01-07T00:56:39;4.80;99.90
9219;DHT22;4644;48.858;9.184;2024-01-07T00:59:07;4.90;99.90
9219;DHT22;4644;48.858;9.184;2024-01-07T01:01:34;4.90;99.90
9219;DHT22;4644;48.858;9.184;2024-01-07T01:04:00;4.80;99.90
9219;DHT22;4644;48.858;9.184;2024-01-07T01:06:27;4.80;99.90
9219;DHT22;4644;48.858;9.184;2024-01-07T01:08:54;4.70;99.90
9219;DHT22;4644;48.858;9.184;2024-01-07T01:11:21;4.80;99.90
9219;DHT22;4644;48.858;9.184;2024-01-07T01:13:48;4.80;99.90
9219;DHT22;4644;48.858;9.184;2024-01-07T01:16:16;4.80;99.90
9219;DHT22;4644;48.858;9.184;2024-01-07T01:18:43;4.70;99.90
9219;DHT22;4644;48.858;9.184;2024-01-07T01:21:10;4.70;99.90
9219;DHT22;4644;48.858;9.184;2024-01-07T01:23:37;4.70;99.90
9219;DHT22;4644;48.858;9.184;2024-01-07T01:26:04;4.70;99.90
9219;DHT22;4644;48.858;9.184;2024-01-07T01:28:31;4.70;99.90
9219;DHT22;4644;48.858;9.184;2024-01-07T01:30:58;4.70;99.90
9219;DHT22;4644;48.858;9.184;2024-01-07T01:33:26;4.70;99.90
9219;DHT22;4644;48.858;9.184;2024-01-07T01:35:53;4.70;99.90
9219;DHT22;4644;48.858;9.184;2024-01-07T01:38:20;4.80;99.90
9219;DHT22;4644;48.858;9.184;2024-01-07T01:40:51;4.80;99.90
9219;DHT22;4644;48.858;9.184;2024-01-07T01:43:23;4.80;99.90
9219;DHT22;4644;48.858;9.184;2024-01-07T01:45:50;4.80;99.90
9219;DHT22;4644;48.858;9.184;2024-01-07T01:48:17;4.80;99.90
9219;DHT22;4644;48.858;9.184;2024-01-07T01:50:45;4.90;99.90
9219;DHT22;4644;48.858;9.184;2024-01-07T01:53:13;4.90;99.90
9219;DHT22;4644;48.858;9.184;2024-01-07T01:55:41;4.80;99.90
9219;DHT22;4644;48.858;9.184;2024-01-07T01:58:09;4.80;99.90
9219;DHT22;4644;48.858;9.184;2024-01-07T02:00:36;4.90;99.90
9219;DHT22;4644;48.858;9.184;2024-01-07T02:03:03;4.80;99.90
9219;DHT22;4644;48.858;9.184;2024-01-07T02:05:30;4.80;99.90
9219;DHT22;4644;48.858;9.184;2024-01-07T02:07:59;4.90;99.90
9219;DHT22;4644;48.858;9.184;2024-01-07T02:10:26;4.90;99.90
9219;DHT22;4644;48.858;9.184;2024-01-07T02:12:54;4.90;99.90
9219;DHT22;4644;48.858;9.184;2024-01-07T02:15:21;4.90;99.90
9219;DHT22;4644;48.858;9.184;2024-01-07T02:17:48;4.90;99.90
9219;DHT22;4644;48.858;9.184;2024-01-07T02:20:15;4.90;99.90
9219;DHT22;4644;48.858;9.184;2024-01-07T02:22:42;4.90;99.90
9219;DHT22;4644;48.858;9.184;2024-01-07T02:25:10;4.90;99.90
9219;DHT22;4644;48.858;9.184;2024-01-07T02:27:37;4.90;99.90
9219;DHT22;4644;48.858;9.184;2024-01-07T02:30:05;4.90;99.90
9219;DHT22;4644;48.858;9.184;2024-01-07T02:32:32;4.90;99.90
9219;DHT22;4644;48.858;9.184;2024-01-07T02:35:00;4.90;99.90
9219;DHT22;4644;48.858;9.184;2024-01-07T02:37:27;4.90;99.90
9219;DHT22;4644;48.858;9.184;2024-01-07T02:39:54;4.90;99.90
9219;DHT22;4644;48.858;9.184;2024-01-07T02:42:22;4.90;99.90
9219;DHT22;4644;48.858;9.184;2024-01-07T02:44:49;4.90;99.90
9219;DHT22;4644;48.858;9.184;2024-01-07T02:47:16;4.90;99.90
9219;DHT22;4644;48.858;9.184;2024-01-07T02:49:43;4.90;99.90
9219;DHT22;4644;48.858;9.184;2024-01-07T02:52:10;4.90;99.90
9219;DHT22;4644;48.858;9.184;2024-01-07T02:54:36;4.90;99.90
9219;DHT22;4644;48.858;9.184;2024-01-07T02:57:03;4.90;99.90
9219;DHT22;4644;48.858;9.184;2024-01-07T02:59:31;4.90;99.90
9219;DHT22;4644;48.858;9.184;2024-01-07T03:01:58;4.90;99.90
9219;DHT22;4644;48.858;9.184;2024-01-07T03:04:25;4.90;99.90
9219;DHT22;4644;48.858;9.184;2024-01-07T03:06:51;4.90;99.90
9219;DHT22;4644;48.858;9.184;2024-01-07T03:09:18;4.90;99.90
9219;DHT22;4644;48.858;9.184;2024-01-07T03:11:45;4.80;99.90
9219;DHT22;4644;48.858;9.184;2024-01-07T03:14:12;4.80;99.90
9219;DHT22;4644;48.858;9.184;2024-01-07T03:16:40;4.80;99.90
9219;DHT22;4644;48.858;9.184;2024-01-07T03:19:08;4.80;99.90
9219;DHT22;4644;48.858;9.184;2024-01-07T03:21:35;4.80;99.90
9219;DHT22;4644;48.858;9.184;2024-01-07T03:24:02;4.80;99.90
9219;DHT22;4644;48.858;9.184;2024-01-07T03:26:30;4.80;99.90
9219;DHT22;4644;48.858;9.184;2024-01-07T03:28:58;4.80;99.90
9219;DHT22;4644;48.858;9.184;2024-01-07T03:31:26;4.80;99.90
9219;DHT22;4644;48.858;9.184;2024-01-07T03:33:54;4.80;99.90
9219;DHT22;4644;48.858;9.184;2024-01-07T03:36:21;4.70;99.90
9219;DHT22;4644;48.858;9.184;2024-01-07T03:38:48;4.80;99.90
9219;DHT22;4644;48.858;9.184;2024-01-07T03:41:18;4.80;99.90
9219;DHT22;4644;48.858;9.184;2024-01-07T03:43:46;4.70;99.90
9219;DHT22;4644;48.858;9.184;2024-01-07T03:46:13;4.70;99.90
9219;DHT22;4644;48.858;9.184;2024-01-07T03:48:41;4.70;99.90
9219;DHT22;4644;48.858;9.184;2024-01-07T03:51:10;4.70;99.90
9219;DHT22;4644;48.858;9.184;2024-01-07T03:53:36;4.70;99.90
9219;DHT22;4644;48.858;9.184;2024-01-07T03:56:04;4.70;99.90
9219;DHT22;4644;48.858;9.184;2024-01-07T03:58:31;4.70;99.90
9219;DHT22;4644;48.858;9.184;2024-01-07T04:00:58;4.70;99.90
9219;DHT22;4644;48.858;9.184;2024-01-07T04:03:25;4.60;99.90
9219;DHT22;4644;48.858;9.184;2024-01-07T04:05:51;4.60;99.90
9219;DHT22;4644;48.858;9.184;2024-01-07T04:08:20;4.60;99.90
9219;DHT22;4644;48.858;9.184;2024-01-07T04:10:46;4.60;99.90
9219;DHT22;4644;48.858;9.184;2024-01-07T04:13:13;4.60;99.90
9219;DHT22;4644;48.858;9.184;2024-01-07T04:15:40;4.60;99.90
9219;DHT22;4644;48.858;9.184;2024-01-07T04:18:07;4.50;99.90
9219;DHT22;4644;48.858;9.184;2024-01-07T04:20:34;4.50;99.90
9219;DHT22;4644;48.858;9.184;2024-01-07T04:23:01;4.50;99.90
9219;DHT22;4644;48.858;9.184;2024-01-07T04:25:29;4.50;99.90
9219;DHT22;4644;48.858;9.184;2024-01-07T04:27:56;4.50;99.90
9219;DHT22;4644;48.858;9.184;2024-01-07T04:30:22;4.50;99.90
9219;DHT22;4644;48.858;9.184;2024-01-07T04:32:49;4.50;99.90
9219;DHT22;4644;48.858;9.184;2024-01-07T04:35:16;4.50;99.90
9219;DHT22;4644;48.858;9.184;2024-01-07T04:37:43;4.50;99.90
9219;DHT22;4644;48.858;9.184;2024-01-07T04:40:11;4.50;99.90
9219;DHT22;4644;48.858;9.184;2024-01-07T04:42:39;4.50;99.90
9219;DHT22;4644;48.858;9.184;2024-01-07T04:45:07;4.50;99.90
9219;DHT22;4644;48.858;9.184;2024-01-07T04:47:34;4.40;99.90
9219;DHT22;4644;48.858;9.184;2024-01-07T04:50:01;4.40;99.90
9219;DHT22;4644;48.858;9.184;2024-01-07T04:52:27;4.40;99.90
9219;DHT22;4644;48.858;9.184;2024-01-07T04:54:55;4.30;99.90
9219;DHT22;4644;48.858;9.184;2024-01-07T04:57:22;4.30;99.90
9219;DHT22;4644;48.858;9.184;2024-01-07T04:59:50;4.30;99.90
9219;DHT22;4644;48.858;9.184;2024-01-07T05:02:17;4.30;99.90
9219;DHT22;4644;48.858;9.184;2024-01-07T05:04:44;4.30;99.90
9219;DHT22;4644;48.858;9.184;2024-01-07T05:07:11;4.30;99.90
9219;DHT22;4644;48.858;9.184;2024-01-07T05:09:38;4.30;99.90
9219;DHT22;4644;48.858;9.184;2024-01-07T05:12:06;4.20;99.90
9219;DHT22;4644;48.858;9.184;2024-01-07T05:14:33;4.20;99.90
9219;DHT22;4644;48.858;9.184;2024-01-07T05:17:01;4.30;99.90
9219;DHT22;4644;48.858;9.184;2024-01-07T05:19:28;4.20;99.90
9219;DHT22;4644;48.858;9.184;2024-01-07T05:21:55;4.20;99.90
9219;DHT22;4644;48.858;9.184;2024-01-07T05:24:22;4.20;99.90
9219;DHT22;4644;48.858;9.184;2024-01-07T05:26:48;4.20;99.90
9219;DHT22;4644;48.858;9.184;2024-01-07T05:29:15;4.20;99.90
9219;DHT22;4644;48.858;9.184;2024-01-07T05:31:42;4.20;99.90
9219;DHT22;4644;48.858;9.184;2024-01-07T05:34:11;4.20;99.90
9219;DHT22;4644;48.858;9.184;2024-01-07T05:36:38;4.20;99.90
9219;DHT22;4644;48.858;9.184;2024-01-07T05:39:04;4.20;99.90
9219;DHT22;4644;48.858;9.184;2024-01-07T05:41:33;4.10;99.90
9219;DHT22;4644;48.858;9.184;2024-01-07T05:43:59;4.20;99.90
9219;DHT22;4644;48.858;9.184;2024-01-07T05:46:26;4.10;99.90
9219;DHT22;4644;48.858;9.184;2024-01-07T05:48:53;4.10;99.90
9219;DHT22;4644;48.858;9.184;2024-01-07T05:51:21;4.20;99.90
9219;DHT22;4644;48.858;9.184;2024-01-07T05:53:48;4.20;99.90
9219;DHT22;4644;48.858;9.184;2024-01-07T05:56:15;4.20;99.90
9219;DHT22;4644;48.858;9.184;2024-01-07T05:58:42;4.20;99.90
9219;DHT22;4644;48.858;9.184;2024-01-07T06:01:09;4.20;99.90
9219;DHT22;4644;48.858;9.184;2024-01-07T06:03:36;4.10;99.90
9219;DHT22;4644;48.858;9.184;2024-01-07T06:06:03;4.10;99.90
9219;DHT22;4644;48.858;9.184;2024-01-07T06:08:31;4.10;99.90
9219;DHT22;4644;48.858;9.184;2024-01-07T06:10:58;4.10;99.90
9219;DHT22;4644;48.858;9.184;2024-01-07T06:13:25;4.10;99.90
9219;DHT22;4644;48.858;9.184;2024-01-07T06:15:52;4.10;99.90
9219;DHT22;4644;48.858;9.184;2024-01-07T06:18:19;4.10;99.90
9219;DHT22;4644;48.858;9.184;2024-01-07T06:20:46;4.20;99.90
9219;DHT22;4644;48.858;9.184;2024-01-07T06:23:13;4.20;99.90
9219;DHT22;4644;48.858;9.184;2024-01-07T06:25:41;4.20;99.90
9219;DHT22;4644;48.858;9.184;2024-01-07T06:28:08;4.20;99.90
9219;DHT22;4644;48.858;9.184;2024-01-07T06:30:36;4.20;99.90
9219;DHT22;4644;48.858;9.184;2024-01-07T06:33:03;4.10;99.90
9219;DHT22;4644;48.858;9.184;2024-01-07T06:35:30;4.10;99.90
9219;DHT22;4644;48.858;9.184;2024-01-07T06:37:57;4.10;99.90
9219;DHT22;4644;48.858;9.184;2024-01-07T06:40:25;4.10;99.90
9219;DHT22;4644;48.858;9.184;2024-01-07T06:42:53;4.10;99.90
9219;DHT22;4644;48.858;9.184;2024-01-07T06:45:20;4.10;99.90
9219;DHT22;4644;48.858;9.184;2024-01-07T06:47:46;4.10;99.90
9219;DHT22;4644;48.858;9.184;2024-01-07T06:50:14;4.10;99.90
9219;DHT22;4644;48.858;9.184;2024-01-07T06:52:40;4.00;99.90
9219;DHT22;4644;48.858;9.184;2024-01-07T06:55:07;4.00;99.90
9219;DHT22;4644;48.858;9.184;2024-01-07T06:57:34;4.00;99.90
9219;DHT22;4644;48.858;9.184;2024-01-07T07:00:03;4.10;99.90
9219;DHT22;4644;48.858;9.184;2024-01-07T07:02:30;4.00;99.90
9219;DHT22;4644;48.858;9.184;2024-01-07T07:04:57;4.00;99.90
9219;DHT22;4644;48.858;9.184;2024-01-07T07:07:24;4.00;99.90
9219;DHT22;4644;48.858;9.184;2024-01-07T07:09:51;4.00;99.90
9219;DHT22;4644;48.858;9.184;2024-01-07T07:12:18;4.00;99.90
9219;DHT22;4644;48.858;9.184;2024-01-07T07:14:45;4.00;99.90
9219;DHT22;4644;48.858;9.184;2024-01-07T07:17:14;3.90;99.90
9219;DHT22;4644;48.858;9.184;2024-01-07T07:19:41;3.90;99.90
9219;DHT22;4644;48.858;9.184;2024-01-07T07:22:08;3.90;99.90
9219;DHT22;4644;48.858;9.184;2024-01-07T07:24:35;3.90;99.90
9219;DHT22;4644;48.858;9.184;2024-01-07T07:27:05;3.90;99.90
9219;DHT22;4644;48.858;9.184;2024-01-07T07:29:32;3.90;99.90
9219;DHT22;4644;48.858;9.184;2024-01-07T07:31:59;3.90;99.90
9219;DHT22;4644;48.858;9.184;2024-01-07T07:34:27;3.90;99.90
9219;DHT22;4644;48.858;9.184;2024-01-07T07:36:55;3.90;99.90
9219;DHT22;4644;48.858;9.184;2024-01-07T07:39:22;3.90;99.90
9219;DHT22;4644;48.858;9.184;2024-01-07T07:41:49;3.90;99.90
9219;DHT22;4644;48.858;9.184;2024-01-07T07:44:15;3.80;99.90
9219;DHT22;4644;48.858;9.184;2024-01-07T07:46:43;3.90;99.90
9219;DHT22;4644;48.858;9.184;2024-01-07T07:49:10;3.90;99.90
9219;DHT22;4644;48.858;9.184;2024-01-07T07:51:39;3.80;99.90
9219;DHT22;4644;48.858;9.184;2024-01-07T07:54:06;3.80;99.90
9219;DHT22;4644;48.858;9.184;2024-01-07T07:56:33;3.80;99.90
9219;DHT22;4644;48.858;9.184;2024-01-07T07:59:01;3.80;99.90
9219;DHT22;4644;48.858;9.184;2024-01-07T08:01:28;3.80;99.90
9219;DHT22;4644;48.858;9.184;2024-01-07T08:03:55;3.80;99.90
9219;DHT22;4644;48.858;9.184;2024-01-07T08:06:22;3.80;99.90
9219;DHT22;4644;48.858;9.184;2024-01-07T08:08:50;3.80;99.90
9219;DHT22;4644;48.858;9.184;2024-01-07T08:11:17;3.80;99.90
9219;DHT22;4644;48.858;9.184;2024-01-07T08:13:44;3.90;99.90
9219;DHT22;4644;48.858;9.184;2024-01-07T08:16:11;3.80;99.90
9219;DHT22;4644;48.858;9.184;2024-01-07T08:18:37;3.90;99.90
9219;DHT22;4644;48.858;9.184;2024-01-07T08:21:04;3.90;99.90
9219;DHT22;4644;48.858;9.184;2024-01-07T08:23:31;3.90;99.90
9219;DHT22;4644;48.858;9.184;2024-01-07T08:26:00;3.80;99.90
9219;DHT22;4644;48.858;9.184;2024-01-07T08:28:27;3.80;99.90
9219;DHT22;4644;48.858;9.184;2024-01-07T08:30:54;3.80;99.90
9219;DHT22;4644;48.858;9.184;2024-01-07T08:33:21;3.80;99.90
9219;DHT22;4644;48.858;9.184;2024-01-07T08:35:48;3.80;99.90
9219;DHT22;4644;48.858;9.184;2024-01-07T08:38:15;3.80;99.90
9219;DHT22;4644;48.858;9.184;2024-01-07T08:40:42;3.80;99.90
9219;DHT22;4644;48.858;9.184;2024-01-07T08:43:10;3.80;99.90
9219;DHT22;4644;48.858;9.184;2024-01-07T08:45:37;3.70;99.90
9219;DHT22;4644;48.858;9.184;2024-01-07T08:48:05;3.70;99.90
9219;DHT22;4644;48.858;9.184;2024-01-07T08:50:32;3.70;99.90
9219;DHT22;4644;48.858;9.184;2024-01-07T08:52:58;3.70;99.90
9219;DHT22;4644;48.858;9.184;2024-01-07T08:55:25;3.80;99.90
9219;DHT22;4644;48.858;9.184;2024-01-07T08:57:52;3.80;99.90
9219;DHT22;4644;48.858;9.184;2024-01-07T09:00:21;3.80;99.90
9219;DHT22;4644;48.858;9.184;2024-01-07T09:02:51;3.80;99.90
9219;DHT22;4644;48.858;9.184;2024-01-07T09:05:18;3.80;99.90
9219;DHT22;4644;48.858;9.184;2024-01-07T09:07:45;3.80;99.90
9219;DHT22;4644;48.858;9.184;2024-01-07T09:10:12;3.90;99.90
9219;DHT22;4644;48.858;9.184;2024-01-07T09:12:39;3.90;99.90
9219;DHT22;4644;48.858;9.184;2024-01-07T09:15:07;3.90;99.90
9219;DHT22;4644;48.858;9.184;2024-01-07T09:17:36;3.90;99.90
9219;DHT22;4644;48.858;9.184;2024-01-07T09:20:04;3.90;99.90
9219;DHT22;4644;48.858;9.184;2024-01-07T09:22:33;3.90;99.90
9219;DHT22;4644;48.858;9.184;2024-01-07T09:25:00;3.90;99.90
9219;DHT22;4644;48.858;9.184;2024-01-07T09:27:27;4.00;99.90
9219;DHT22;4644;48.858;9.184;2024-01-07T09:29:54;4.00;99.90
9219;DHT22;4644;48.858;9.184;2024-01-07T09:32:21;4.00;99.90
9219;DHT22;4644;48.858;9.184;2024-01-07T09:34:49;4.00;99.90
9219;DHT22;4644;48.858;9.184;2024-01-07T09:37:16;4.00;99.90
9219;DHT22;4644;48.858;9.184;2024-01-07T09:39:43;4.00;99.90
9219;DHT22;4644;48.858;9.184;2024-01-07T09:42:15;4.00;99.90
9219;DHT22;4644;48.858;9.184;2024-01-07T09:44:42;4.00;99.90
9219;DHT22;4644;48.858;9.184;2024-01-07T09:47:11;3.90;99.90
9219;DHT22;4644;48.858;9.184;2024-01-07T09:49:38;3.90;99.90
9219;DHT22;4644;48.858;9.184;2024-01-07T09:52:08;3.90;99.90
9219;DHT22;4644;48.858;9.184;2024-01-07T09:54:36;3.90;99.90
9219;DHT22;4644;48.858;9.184;2024-01-07T09:57:04;3.90;99.90
9219;DHT22;4644;48.858;9.184;2024-01-07T09:59:32;3.90;99.90
9219;DHT22;4644;48.858;9.184;2024-01-07T10:01:59;3.80;99.90
9219;DHT22;4644;48.858;9.184;2024-01-07T10:04:26;3.80;99.90
9219;DHT22;4644;48.858;9.184;2024-01-07T10:06:54;3.80;99.90
9219;DHT22;4644;48.858;9.184;2024-01-07T10:09:24;3.80;99.90
9219;DHT22;4644;48.858;9.184;2024-01-07T10:11:52;3.80;99.90
9219;DHT22;4644;48.858;9.184;2024-01-07T10:14:19;3.70;99.90
9219;DHT22;4644;48.858;9.184;2024-01-07T10:16:48;3.70;99.90
9219;DHT22;4644;48.858;9.184;2024-01-07T10:19:20;3.70;99.90
9219;DHT22;4644;48.858;9.184;2024-01-07T10:21:58;3.60;99.90
9219;DHT22;4644;48.858;9.184;2024-01-07T10:24:34;3.60;99.90
9219;DHT22;4644;48.858;9.184;2024-01-07T10:27:03;3.60;99.90
9219;DHT22;4644;48.858;9.184;2024-01-07T10:29:30;3.70;99.90
9219;DHT22;4644;48.858;9.184;2024-01-07T10:31:57;3.70;99.90
9219;DHT22;4644;48.858;9.184;2024-01-07T10:34:25;3.70;99.90
9219;DHT22;4644;48.858;9.184;2024-01-07T10:36:52;3.60;99.90
9219;DHT22;4644;48.858;9.184;2024-01-07T10:39:21;3.70;99.90
9219;DHT22;4644;48.858;9.184;2024-01-07T10:41:50;3.70;99.90
9219;DHT22;4644;48.858;9.184;2024-01-07T10:44:19;3.70;99.90
9219;DHT22;4644;48.858;9.184;2024-01-07T10:46:47;3.60;99.90
9219;DHT22;4644;48.858;9.184;2024-01-07T10:49:18;3.70;99.90
9219;DHT22;4644;48.858;9.184;2024-01-07T10:51:46;3.70;99.90
9219;DHT22;4644;48.858;9.184;2024-01-07T10:54:18;3.70;99.90
9219;DHT22;4644;48.858;9.184;2024-01-07T10:56:50;3.70;99.90
9219;DHT22;4644;48.858;9.184;2024-01-07T10:59:20;3.70;99.90
9219;DHT22;4644;48.858;9.184;2024-01-07T11:01:48;3.60;99.90
9219;DHT22;4644;48.858;9.184;2024-01-07T11:04:23;3.70;99.90
9219;DHT22;4644;48.858;9.184;2024-01-07T11:06:55;3.60;99.90
9219;DHT22;4644;48.858;9.184;2024-01-07T11:09:28;3.60;99.90
9219;DHT22;4644;48.858;9.184;2024-01-07T11:12:00;3.60;99.90
9219;DHT22;4644;48.858;9.184;2024-01-07T11:14:37;3.50;99.90
9219;DHT22;4644;48.858;9.184;2024-01-07T11:17:05;3.50;99.90
9219;DHT22;4644;48.858;9.184;2024-01-07T11:19:33;3.50;99.90
9219;DHT22;4644;48.858;9.184;2024-01-07T11:22:31;3.50;99.90
9219;DHT22;4644;48.858;9.184;2024-01-07T11:25:00;3.50;99.90
9219;DHT22;4644;48.858;9.184;2024-01-07T11:27:30;3.40;99.90
9219;DHT22;4644;48.858;9.184;2024-01-07T11:30:01;3.40;99.90
9219;DHT22;4644;48.858;9.184;2024-01-07T11:32:30;3.40;99.90
9219;DHT22;4644;48.858;9.184;2024-01-07T11:34:57;3.40;99.90
9219;DHT22;4644;48.858;9.184;2024-01-07T11:37:25;3.40;99.90
9219;DHT22;4644;48.858;9.184;2024-01-07T11:39:55;3.40;99.90
9219;DHT22;4644;48.858;9.184;2024-01-07T11:42:22;3.40;99.90
9219;DHT22;4644;48.858;9.184;2024-01-07T11:44:52;3.40;99.90
9219;DHT22;4644;48.858;9.184;2024-01-07T11:47:23;3.30;99.90
9219;DHT22;4644;48.858;9.184;2024-01-07T11:49:51;3.30;99.90
9219;DHT22;4644;48.858;9.184;2024-01-07T11:52:19;3.30;99.90
9219;DHT22;4644;48.858;9.184;2024-01-07T11:54:47;3.30;99.90
9219;DHT22;4644;48.858;9.184;2024-01-07T11:57:14;3.30;99.90
9219;DHT22;4644;48.858;9.184;2024-01-07T11:59:41;3.20;99.90
9219;DHT22;4644;48.858;9.184;2024-01-07T12:02:09;3.30;99.90
9219;DHT22;4644;48.858;9.184;2024-01-07T12:04:36;3.20;99.90
9219;DHT22;4644;48.858;9.184;2024-01-07T12:07:04;3.10;99.90
9219;DHT22;4644;48.858;9.184;2024-01-07T12:09:31;3.10;99.90
9219;DHT22;4644;48.858;9.184;2024-01-07T12:11:58;3.20;99.90
9219;DHT22;4644;48.858;9.184;2024-01-07T12:14:27;3.10;99.90
9219;DHT22;4644;48.858;9.184;2024-01-07T12:16:56;3.00;99.90
9219;DHT22;4644;48.858;9.184;2024-01-07T12:19:24;3.00;99.90
9219;DHT22;4644;48.858;9.184;2024-01-07T12:22:01;3.00;99.90
9219;DHT22;4644;48.858;9.184;2024-01-07T12:24:28;3.00;99.90
9219;DHT22;4644;48.858;9.184;2024-01-07T12:26:55;3.00;99.90
9219;DHT22;4644;48.858;9.184;2024-01-07T12:29:22;2.90;99.90
9219;DHT22;4644;48.858;9.184;2024-01-07T12:31:51;2.90;99.90
9219;DHT22;4644;48.858;9.184;2024-01-07T12:34:18;2.90;99.90
9219;DHT22;4644;48.858;9.184;2024-01-07T12:36:50;2.80;99.90
9219;DHT22;4644;48.858;9.184;2024-01-07T12:39:17;2.80;99.90
9219;DHT22;4644;48.858;9.184;2024-01-07T12:41:44;2.80;99.90
9219;DHT22;4644;48.858;9.184;2024-01-07T12:44:12;2.70;99.90
9219;DHT22;4644;48.858;9.184;2024-01-07T12:46:39;2.70;99.90
9219;DHT22;4644;48.858;9.184;2024-01-07T12:49:06;2.70;99.90
9219;DHT22;4644;48.858;9.184;2024-01-07T12:51:33;2.70;99.90
9219;DHT22;4644;48.858;9.184;2024-01-07T12:54:01;2.60;99.90
9219;DHT22;4644;48.858;9.184;2024-01-07T12:56:29;2.70;99.90
9219;DHT22;4644;48.858;9.184;2024-01-07T12:58:56;2.70;99.90
9219;DHT22;4644;48.858;9.184;2024-01-07T13:01:23;2.60;99.90
9219;DHT22;4644;48.858;9.184;2024-01-07T13:03:50;2.60;99.90
9219;DHT22;4644;48.858;9.184;2024-01-07T13:06:17;2.60;99.90
9219;DHT22;4644;48.858;9.184;2024-01-07T13:08:44;2.50;99.90
9219;DHT22;4644;48.858;9.184;2024-01-07T13:11:12;2.40;99.90
9219;DHT22;4644;48.858;9.184;2024-01-07T13:13:42;2.40;99.90
9219;DHT22;4644;48.858;9.184;2024-01-07T13:16:08;2.40;99.90
9219;DHT22;4644;48.858;9.184;2024-01-07T13:18:36;2.30;99.90
9219;DHT22;4644;48.858;9.184;2024-01-07T13:21:04;2.30;99.90
9219;DHT22;4644;48.858;9.184;2024-01-07T13:23:32;2.30;99.90
9219;DHT22;4644;48.858;9.184;2024-01-07T13:25:58;2.30;99.90
9219;DHT22;4644;48.858;9.184;2024-01-07T13:28:29;2.20;99.90
9219;DHT22;4644;48.858;9.184;2024-01-07T13:30:57;2.20;99.90
9219;DHT22;4644;48.858;9.184;2024-01-07T13:33:24;2.30;99.90
9219;DHT22;4644;48.858;9.184;2024-01-07T13:35:51;2.30;99.90
9219;DHT22;4644;48.858;9.184;2024-01-07T13:38:17;2.40;99.90
9219;DHT22;4644;48.858;9.184;2024-01-07T13:40:44;2.40;99.90
9219;DHT22;4644;48.858;9.184;2024-01-07T13:43:11;2.30;99.90
9219;DHT22;4644;48.858;9.184;2024-01-07T13:45:39;2.20;99.90
9219;DHT22;4644;48.858;9.184;2024-01-07T13:48:07;2.10;99.90
9219;DHT22;4644;48.858;9.184;2024-01-07T13:50:34;2.10;99.90
9219;DHT22;4644;48.858;9.184;2024-01-07T13:53:01;2.00;99.90
9219;DHT22;4644;48.858;9.184;2024-01-07T13:55:28;2.00;99.90
9219;DHT22;4644;48.858;9.184;2024-01-07T13:57:56;2.00;99.90
9219;DHT22;4644;48.858;9.184;2024-01-07T14:00:22;2.00;99.90
9219;DHT22;4644;48.858;9.184;2024-01-07T14:02:51;2.00;99.90
9219;DHT22;4644;48.858;9.184;2024-01-07T14:05:17;2.00;99.90
9219;DHT22;4644;48.858;9.184;2024-01-07T14:07:44;2.00;99.90
9219;DHT22;4644;48.858;9.184;2024-01-07T14:10:11;2.00;99.90
9219;DHT22;4644;48.858;9.184;2024-01-07T14:12:38;1.90;99.90
9219;DHT22;4644;48.858;9.184;2024-01-07T14:15:06;1.90;99.90
9219;DHT22;4644;48.858;9.184;2024-01-07T14:17:35;1.90;99.90
9219;DHT22;4644;48.858;9.184;2024-01-07T14:20:04;2.00;99.90
9219;DHT22;4644;48.858;9.184;2024-01-07T14:22:31;1.90;99.90
9219;DHT22;4644;48.858;9.184;2024-01-07T14:24:57;1.90;99.90
9219;DHT22;4644;48.858;9.184;2024-01-07T14:27:24;1.90;99.90
9219;DHT22;4644;48.858;9.184;2024-01-07T14:29:51;1.90;99.90
9219;DHT22;4644;48.858;9.184;2024-01-07T14:32:18;1.90;99.90
9219;DHT22;4644;48.858;9.184;2024-01-07T14:34:45;2.00;99.90
9219;DHT22;4644;48.858;9.184;2024-01-07T14:37:13;2.00;99.90
9219;DHT22;4644;48.858;9.184;2024-01-07T14:39:40;2.00;99.90
9219;DHT22;4644;48.858;9.184;2024-01-07T14:42:07;1.90;99.90
9219;DHT22;4644;48.858;9.184;2024-01-07T14:44:34;1.90;99.90
9219;DHT22;4644;48.858;9.184;2024-01-07T14:47:01;1.80;99.90
9219;DHT22;4644;48.858;9.184;2024-01-07T14:49:28;1.90;99.90
9219;DHT22;4644;48.858;9.184;2024-01-07T14:51:55;1.80;99.90
9219;DHT22;4644;48.858;9.184;2024-01-07T14:54:23;1.80;99.90
9219;DHT22;4644;48.858;9.184;2024-01-07T14:56:50;1.70;99.90
9219;DHT22;4644;48.858;9.184;2024-01-07T14:59:17;1.70;99.90
9219;DHT22;4644;48.858;9.184;2024-01-07T15:01:44;1.50;99.90
9219;DHT22;4644;48.858;9.184;2024-01-07T15:04:10;1.50;99.90
9219;DHT22;4644;48.858;9.184;2024-01-07T15:06:41;1.40;99.90
9219;DHT22;4644;48.858;9.184;2024-01-07T15:09:09;1.50;99.90
9219;DHT22;4644;48.858;9.184;2024-01-07T15:11:38;1.40;99.90
9219;DHT22;4644;48.858;9.184;2024-01-07T15:14:07;1.40;99.90
9219;DHT22;4644;48.858;9.184;2024-01-07T15:16:34;1.40;99.90
9219;DHT22;4644;48.858;9.184;2024-01-07T15:19:02;1.40;99.90
9219;DHT22;4644;48.858;9.184;2024-01-07T15:21:29;1.30;99.90
9219;DHT22;4644;48.858;9.184;2024-01-07T15:23:56;1.30;99.90
9219;DHT22;4644;48.858;9.184;2024-01-07T15:26:23;1.30;99.90
9219;DHT22;4644;48.858;9.184;2024-01-07T15:28:54;1.30;99.90
9219;DHT22;4644;48.858;9.184;2024-01-07T15:31:24;1.20;99.90
9219;DHT22;4644;48.858;9.184;2024-01-07T15:33:51;1.10;99.90
9219;DHT22;4644;48.858;9.184;2024-01-07T15:36:18;1.00;99.90
9219;DHT22;4644;48.858;9.184;2024-01-07T15:38:45;1.00;99.90
9219;DHT22;4644;48.858;9.184;2024-01-07T15:41:12;0.90;99.90
9219;DHT22;4644;48.858;9.184;2024-01-07T15:43:42;0.90;99.90
9219;DHT22;4644;48.858;9.184;2024-01-07T15:46:11;0.90;99.90
9219;DHT22;4644;48.858;9.184;2024-01-07T15:48:38;0.90;99.90
9219;DHT22;4644;48.858;9.184;2024-01-07T15:51:05;0.90;99.90
9219;DHT22;4644;48.858;9.184;2024-01-07T15:53:32;0.80;99.90
9219;DHT22;4644;48.858;9.184;2024-01-07T15:56:01;0.70;99.90
9219;DHT22;4644;48.858;9.184;2024-01-07T15:58:28;0.70;99.90
9219;DHT22;4644;48.858;9.184;2024-01-07T16:00:58;0.70;99.90
9219;DHT22;4644;48.858;9.184;2024-01-07T16:03:27;0.70;99.90
9219;DHT22;4644;48.858;9.184;2024-01-07T16:05:54;0.70;99.90
9219;DHT22;4644;48.858;9.184;2024-01-07T16:08:22;0.70;99.90
9219;DHT22;4644;48.858;9.184;2024-01-07T16:10:51;0.70;99.90
9219;DHT22;4644;48.858;9.184;2024-01-07T16:13:18;0.60;99.90
9219;DHT22;4644;48.858;9.184;2024-01-07T16:15:45;0.60;99.90
9219;DHT22;4644;48.858;9.184;2024-01-07T16:18:11;0.60;99.90